Time;durP1;ratioP1;P1;durP2;ratioP2;P2;SDS_P1;SDS_P2;PMS_P1;PMS_P2;Temp;Humidity;BMP_temperature;BMP_pressure;BME280_temperature;BME280_humidity;BME280_pressure;Samples;Min_cycle;Max_cycle;Signal;HPM_P1;HPM_P2
2022/12/09 00:00:50;;;;;;;241.65;30.27;;;0.00;99.90;;;;;;5023914;28;20042;-74
2022/12/09 00:03:15;;;;;;;242.00;29.48;;;0.00;99.90;;;;;;5022930;28;20461;-74
2022/12/09 00:05:40;;;;;;;200.68;28.15;;;0.00;99.90;;;;;;5024496;28;20044;-74
2022/12/09 00:08:06;;;;;;;229.32;29.67;;;0.00;99.90;;;;;;5025183;28;20114;-74
2022/12/09 00:10:31;;;;;;;223.38;28.38;;;0.00;99.90;;;;;;5028359;28;20116;-74
2022/12/09 00:12:57;;;;;;;164.70;28.17;;;0.00;99.90;;;;;;5027824;28;21045;-74
2022/12/09 00:15:22;;;;;;;229.45;29.55;;;0.00;99.90;;;;;;5026905;28;20025;-74
2022/12/09 00:17:48;;;;;;;188.77;29.48;;;0.00;99.90;;;;;;5017771;28;20160;-74
2022/12/09 00:20:13;;;;;;;244.32;30.25;;;0.00;99.90;;;;;;5024989;28;20033;-74
2022/12/09 00:22:39;;;;;;;208.30;30.17;;;0.00;99.90;;;;;;5024663;28;20060;-74
2022/12/09 00:25:05;;;;;;;263.83;31.90;;;0.10;99.90;;;;;;5023437;28;20025;-74
2022/12/09 00:27:30;;;;;;;255.82;31.45;;;0.10;99.90;;;;;;5021254;28;20018;-74
2022/12/09 00:29:56;;;;;;;176.57;30.55;;;0.10;99.90;;;;;;5018617;28;20112;-73
2022/12/09 00:32:21;;;;;;;157.13;29.35;;;0.10;99.90;;;;;;5019707;28;20132;-74
2022/12/09 00:34:47;;;;;;;176.85;28.30;;;0.10;99.90;;;;;;5036698;28;20381;-74
2022/12/09 00:37:13;;;;;;;154.90;30.58;;;0.10;99.90;;;;;;5023175;28;20072;-74
2022/12/09 00:39:38;;;;;;;148.45;28.58;;;0.10;99.90;;;;;;5025774;28;20049;-74
2022/12/09 00:42:04;;;;;;;147.95;30.23;;;0.10;99.90;;;;;;5027347;28;20112;-74
2022/12/09 00:44:29;;;;;;;141.75;29.92;;;0.10;99.90;;;;;;5021229;28;20049;-74
2022/12/09 00:46:55;;;;;;;154.98;30.75;;;0.10;99.90;;;;;;5025605;28;20052;-74
2022/12/09 00:49:20;;;;;;;145.13;31.25;;;0.10;99.90;;;;;;5032562;28;20036;-74
2022/12/09 00:51:46;;;;;;;137.85;28.80;;;0.10;99.90;;;;;;5021826;28;20084;-74
2022/12/09 00:54:11;;;;;;;155.40;29.75;;;0.20;99.90;;;;;;5018256;28;20125;-74
2022/12/09 00:56:37;;;;;;;147.35;30.15;;;0.20;99.90;;;;;;5023556;28;20131;-74
2022/12/09 00:59:02;;;;;;;131.25;30.55;;;0.20;99.90;;;;;;5023363;28;20044;-74
2022/12/09 01:01:28;;;;;;;122.47;28.50;;;0.20;99.90;;;;;;5016695;28;20087;-74
2022/12/09 01:03:55;;;;;;;136.80;28.50;;;0.20;99.90;;;;;;5017945;28;20132;-73
2022/12/09 01:06:23;;;;;;;121.75;29.13;;;0.20;99.90;;;;;;5024554;28;20060;-74
2022/12/09 01:08:48;;;;;;;145.93;29.73;;;0.20;99.90;;;;;;5028311;28;20018;-74
2022/12/09 01:11:23;;;;;;;135.95;31.42;;;0.20;99.90;;;;;;5016980;28;20469;-74
2022/12/09 01:13:49;;;;;;;152.98;31.08;;;0.20;99.90;;;;;;5020773;28;20061;-74
2022/12/09 01:16:17;;;;;;;140.30;30.42;;;0.20;99.90;;;;;;5024170;28;20597;-74
2022/12/09 01:18:44;;;;;;;119.93;27.70;;;0.20;99.90;;;;;;5020059;28;20052;-74
2022/12/09 01:21:09;;;;;;;136.07;29.13;;;0.20;99.90;;;;;;5027405;28;20466;-74
2022/12/09 01:23:35;;;;;;;128.25;29.60;;;0.20;99.90;;;;;;5016196;28;20053;-74
2022/12/09 01:26:03;;;;;;;129.27;28.25;;;0.20;99.90;;;;;;5024877;28;20048;-74
2022/12/09 01:28:29;;;;;;;109.85;26.80;;;0.20;99.90;;;;;;5017872;28;20029;-74
2022/12/09 01:30:54;;;;;;;109.50;27.98;;;0.10;99.90;;;;;;5021714;28;20323;-74
2022/12/09 01:33:19;;;;;;;99.25;28.40;;;0.10;99.90;;;;;;5024086;28;20104;-74
2022/12/09 01:35:45;;;;;;;109.20;26.10;;;0.20;99.90;;;;;;5024899;28;20029;-74
2022/12/09 01:38:10;;;;;;;108.43;28.17;;;0.10;99.90;;;;;;5026989;28;20053;-74
2022/12/09 01:40:36;;;;;;;98.50;26.40;;;0.10;99.90;;;;;;5016271;28;20446;-74
2022/12/09 01:43:01;;;;;;;91.40;27.23;;;0.10;99.90;;;;;;5021571;28;20029;-74
2022/12/09 01:45:30;;;;;;;91.35;27.15;;;0.10;99.90;;;;;;5015273;28;20089;-74
2022/12/09 01:48:05;;;;;;;92.43;25.40;;;0.10;99.90;;;;;;5020982;28;20033;-74
2022/12/09 01:50:34;;;;;;;92.82;25.27;;;0.10;99.90;;;;;;5018903;28;20026;-74
2022/12/09 01:52:59;;;;;;;93.45;25.40;;;0.00;99.90;;;;;;5025488;28;20029;-74
2022/12/09 01:55:25;;;;;;;81.40;24.98;;;0.00;99.90;;;;;;5021922;28;20334;-74
2022/12/09 01:57:51;;;;;;;84.22;23.83;;;0.00;99.90;;;;;;5028786;28;20160;-74
2022/12/09 02:00:17;;;;;;;89.22;25.05;;;-3276.70;99.90;;;;;;5012932;28;20036;-74
2022/12/09 02:02:46;;;;;;;84.85;25.85;;;-3276.70;99.90;;;;;;5019782;28;20038;-74
2022/12/09 02:05:12;;;;;;;90.97;25.17;;;-3276.60;99.90;;;;;;5032391;28;20070;-74
2022/12/09 02:07:37;;;;;;;80.20;24.92;;;-3276.60;99.90;;;;;;5019458;28;20038;-74
2022/12/09 02:10:11;;;;;;;82.22;24.60;;;-3276.60;99.90;;;;;;5019254;28;20042;-74
2022/12/09 02:13:05;;;;;;;75.85;23.23;;;-3276.50;99.90;;;;;;5039492;28;20032;-74
2022/12/09 02:15:38;;;;;;;75.13;22.13;;;-3276.40;99.90;;;;;;5022793;28;20025;-74
2022/12/09 02:18:15;;;;;;;75.38;22.17;;;-3276.30;99.90;;;;;;5028691;28;20115;-74
2022/12/09 02:20:49;;;;;;;73.28;23.08;;;-3276.30;99.90;;;;;;5021886;28;20047;-74
2022/12/09 02:23:21;;;;;;;72.00;20.75;;;-3276.30;99.90;;;;;;5020946;28;20064;-73
2022/12/09 02:26:34;;;;;;;82.90;22.52;;;-3276.30;99.90;;;;;;5028331;28;20096;-74
2022/12/09 02:29:21;;;;;;;76.25;20.13;;;-3276.30;99.90;;;;;;5017407;28;20145;-73
2022/12/09 02:32:08;;;;;;;74.07;21.73;;;-3276.20;99.90;;;;;;5026642;28;20390;-74
2022/12/09 02:34:40;;;;;;;79.95;22.83;;;-3276.20;99.90;;;;;;5027870;28;20399;-74
2022/12/09 02:37:15;;;;;;;73.57;21.77;;;-3276.20;99.90;;;;;;5029155;28;20136;-74
2022/12/09 02:39:48;;;;;;;106.10;22.50;;;-3276.10;99.90;;;;;;5025347;28;20087;-74
2022/12/09 02:42:17;;;;;;;83.85;22.38;;;-3276.00;99.90;;;;;;5031808;28;20045;-74
2022/12/09 02:44:46;;;;;;;139.43;24.52;;;-3276.00;99.90;;;;;;5027606;28;20052;-74
2022/12/09 02:47:15;;;;;;;114.57;22.08;;;-3276.00;99.90;;;;;;5027318;28;20116;-73
2022/12/09 02:49:42;;;;;;;81.50;20.75;;;-3276.00;99.90;;;;;;5027153;28;20025;-73
2022/12/09 02:52:09;;;;;;;101.13;21.73;;;-3275.90;99.90;;;;;;5037736;28;20121;-74
2022/12/09 02:54:37;;;;;;;123.90;22.58;;;-3275.80;99.90;;;;;;5023921;28;21871;-74
2022/12/09 02:57:13;;;;;;;108.90;22.75;;;-3275.80;99.90;;;;;;5027979;28;20040;-74
2022/12/09 02:59:39;;;;;;;103.38;21.25;;;-3275.80;99.90;;;;;;5028661;28;20025;-74
2022/12/09 03:02:19;;;;;;;94.47;22.48;;;-3275.70;99.90;;;;;;5025126;28;20384;-74
2022/12/09 03:04:57;;;;;;;113.60;22.98;;;-3275.70;99.90;;;;;;5015802;28;20026;-74
2022/12/09 03:07:38;;;;;;;139.95;22.98;;;-3275.70;99.90;;;;;;5017064;28;20119;-74
2022/12/09 03:10:24;;;;;;;154.95;23.40;;;-3275.60;99.90;;;;;;5024165;28;20062;-74
2022/12/09 03:12:59;;;;;;;132.45;24.27;;;-3275.60;99.90;;;;;;5026963;28;20029;-73
2022/12/09 03:15:29;;;;;;;103.05;21.00;;;-3275.60;99.90;;;;;;5026970;28;20101;-74
2022/12/09 03:17:57;;;;;;;84.30;17.50;;;-3275.60;99.90;;;;;;5034535;28;20032;-74
2022/12/09 03:20:28;;;;;;;142.80;24.67;;;-3275.60;99.90;;;;;;5022024;28;20055;-73
2022/12/09 03:22:58;;;;;;;143.98;22.63;;;-3275.60;99.90;;;;;;5022006;28;20123;-74
2022/12/09 03:25:29;;;;;;;205.50;24.77;;;-3275.60;99.90;;;;;;5026699;28;20052;-74
2022/12/09 03:28:04;;;;;;;256.63;26.60;;;-3275.60;99.90;;;;;;5026450;28;20053;-74
2022/12/09 03:30:32;;;;;;;235.82;24.40;;;-3275.50;99.90;;;;;;5039296;28;20262;-74
2022/12/09 03:32:58;;;;;;;148.45;22.10;;;-3275.50;99.90;;;;;;5026066;28;20112;-74
2022/12/09 03:35:34;;;;;;;170.57;23.13;;;-3275.50;99.90;;;;;;5020619;28;20113;-74
2022/12/09 03:38:03;;;;;;;138.63;21.45;;;-3275.50;99.90;;;;;;5022109;28;20021;-74
2022/12/09 03:40:30;;;;;;;153.20;23.70;;;-3275.50;99.90;;;;;;5019662;28;20033;-74
2022/12/09 03:42:59;;;;;;;162.68;24.02;;;-3275.50;99.90;;;;;;5027449;28;20033;-75
2022/12/09 03:45:25;;;;;;;198.25;23.13;;;-3275.50;99.90;;;;;;5026574;28;20064;-74
2022/12/09 03:47:51;;;;;;;214.88;23.40;;;-3275.50;99.90;;;;;;5029279;28;20361;-74
2022/12/09 03:50:17;;;;;;;171.15;25.63;;;-3275.50;99.90;;;;;;5024958;28;20037;-74
2022/12/09 03:52:51;;;;;;;144.77;23.40;;;-3275.60;99.90;;;;;;5029012;28;20044;-75
2022/12/09 03:55:25;;;;;;;97.70;22.60;;;-3275.60;99.90;;;;;;5033673;28;20510;-74
2022/12/09 03:57:55;;;;;;;95.10;21.90;;;-3275.60;99.90;;;;;;5036107;28;20505;-74
2022/12/09 04:00:20;;;;;;;174.02;23.38;;;-3275.50;99.90;;;;;;5021513;28;20125;-74
2022/12/09 04:02:46;;;;;;;140.82;23.17;;;-3275.50;99.90;;;;;;5018962;28;20104;-74
2022/12/09 04:05:12;;;;;;;128.82;21.20;;;-3275.50;99.90;;;;;;5021696;28;20040;-74
2022/12/09 04:07:37;;;;;;;106.28;20.92;;;-3275.40;99.90;;;;;;5025767;28;20349;-75
2022/12/09 04:10:04;;;;;;;122.38;22.45;;;-3275.50;99.90;;;;;;5025282;28;20049;-74
2022/12/09 04:12:29;;;;;;;83.43;21.05;;;-3275.50;99.90;;;;;;5026784;28;20472;-74
2022/12/09 04:14:55;;;;;;;107.50;21.00;;;-3275.50;99.90;;;;;;5026321;28;20057;-74
2022/12/09 04:17:20;;;;;;;98.45;21.05;;;-3275.50;99.90;;;;;;5024526;28;20029;-75
2022/12/09 04:19:46;;;;;;;93.20;19.75;;;-3275.50;99.90;;;;;;5020697;28;20083;-74
2022/12/09 04:22:11;;;;;;;84.93;20.75;;;-3275.50;99.90;;;;;;5027847;28;20079;-75
2022/12/09 04:24:36;;;;;;;80.40;19.75;;;-3275.50;99.90;;;;;;5026089;28;20120;-74
2022/12/09 04:27:02;;;;;;;125.55;21.92;;;-3275.40;99.90;;;;;;5013507;28;20153;-74
2022/12/09 04:29:28;;;;;;;79.78;19.33;;;-3275.40;99.90;;;;;;5024600;28;20047;-74
2022/12/09 04:31:53;;;;;;;102.95;20.10;;;-3275.40;99.90;;;;;;5021227;28;20034;-75
2022/12/09 04:34:19;;;;;;;86.85;19.85;;;-3275.40;99.90;;;;;;5021883;28;20030;-74
2022/12/09 04:36:44;;;;;;;101.80;20.48;;;-3275.40;99.90;;;;;;5020679;28;20444;-74
2022/12/09 04:39:09;;;;;;;80.00;20.05;;;-3275.40;99.90;;;;;;5021041;28;20107;-75
2022/12/09 04:41:35;;;;;;;82.75;20.17;;;-3275.40;99.90;;;;;;5022477;28;20044;-75
2022/12/09 04:44:01;;;;;;;88.60;19.58;;;-3275.50;99.90;;;;;;5021756;28;20385;-74
2022/12/09 04:46:26;;;;;;;89.03;19.48;;;-3275.50;99.90;;;;;;5023789;28;20342;-74
2022/12/09 04:48:52;;;;;;;91.43;22.35;;;-3275.50;99.90;;;;;;5028564;28;20484;-74
2022/12/09 04:51:18;;;;;;;88.88;21.73;;;-3275.50;99.90;;;;;;5024371;28;20033;-75
2022/12/09 04:53:43;;;;;;;81.22;20.13;;;-3275.50;99.90;;;;;;5023565;28;20573;-75
2022/12/09 04:56:27;;;;;;;105.95;22.30;;;-3275.50;99.90;;;;;;5020356;28;20171;-74
2022/12/09 04:58:52;;;;;;;91.05;20.55;;;-3275.60;99.90;;;;;;5018426;28;20162;-75
2022/12/09 05:01:20;;;;;;;87.20;20.38;;;-3275.60;99.90;;;;;;5023325;28;20099;-75
2022/12/09 05:03:50;;;;;;;73.95;21.02;;;-3275.60;99.90;;;;;;5024889;28;20048;-75
2022/12/09 05:06:17;;;;;;;93.60;21.25;;;-3275.60;99.90;;;;;;5027837;28;20074;-72
2022/12/09 05:08:43;;;;;;;71.00;21.17;;;-3275.60;99.90;;;;;;5020173;28;20049;-73
2022/12/09 05:11:09;;;;;;;80.95;19.35;;;-3275.60;99.90;;;;;;5016478;28;20050;-73
2022/12/09 05:13:34;;;;;;;84.00;20.58;;;-3275.60;99.90;;;;;;5022841;28;20061;-73
2022/12/09 05:16:06;;;;;;;89.90;20.98;;;-3275.70;99.90;;;;;;5023017;28;20053;-73
2022/12/09 05:18:31;;;;;;;82.82;21.00;;;-3275.60;99.90;;;;;;5025576;28;20041;-73
2022/12/09 05:20:57;;;;;;;95.53;22.83;;;-3275.70;99.90;;;;;;5028357;28;20083;-73
2022/12/09 05:23:22;;;;;;;79.65;21.40;;;-3275.70;99.90;;;;;;5022990;28;20393;-73
2022/12/09 05:25:48;;;;;;;82.43;20.83;;;-3275.70;99.90;;;;;;5019185;28;20029;-74
2022/12/09 05:28:14;;;;;;;80.60;22.58;;;-3275.80;99.90;;;;;;5022528;28;20403;-74
2022/12/09 05:30:39;;;;;;;90.30;23.33;;;-3275.80;99.90;;;;;;5016261;28;20017;-73
2022/12/09 05:33:05;;;;;;;89.18;22.25;;;-3275.90;99.90;;;;;;5020086;28;20058;-74
2022/12/09 05:35:31;;;;;;;83.57;22.58;;;-3275.90;99.90;;;;;;5027385;28;20097;-74
2022/12/09 05:37:56;;;;;;;85.13;22.40;;;-3275.90;99.90;;;;;;5024175;28;20037;-75
2022/12/09 05:40:22;;;;;;;87.00;23.05;;;-3275.90;99.90;;;;;;5022275;28;20037;-75
2022/12/09 05:42:47;;;;;;;76.72;21.00;;;-3275.90;99.90;;;;;;5026243;28;20045;-75
2022/12/09 05:45:13;;;;;;;84.50;22.35;;;-3275.90;99.90;;;;;;5016608;28;20129;-74
2022/12/09 05:47:39;;;;;;;79.75;21.42;;;-3275.90;99.90;;;;;;5028282;28;20113;-74
2022/12/09 05:50:05;;;;;;;89.50;22.65;;;-3276.00;99.90;;;;;;5020511;28;20136;-70
2022/12/09 05:52:34;;;;;;;82.55;23.63;;;-3276.00;99.90;;;;;;5027290;28;20026;-69
2022/12/09 05:55:01;;;;;;;81.60;21.98;;;-3276.00;99.90;;;;;;5025070;28;20041;-71
2022/12/09 05:57:26;;;;;;;62.67;21.77;;;-3276.00;99.90;;;;;;5025552;28;20024;-74
2022/12/09 05:59:52;;;;;;;80.05;21.85;;;-3276.00;99.90;;;;;;5021130;28;20127;-74
2022/12/09 06:02:17;;;;;;;73.50;20.88;;;-3276.00;99.90;;;;;;5021159;28;20127;-75
2022/12/09 06:04:43;;;;;;;83.68;22.00;;;-3276.00;99.90;;;;;;5025631;28;20532;-74
2022/12/09 06:07:08;;;;;;;82.03;22.15;;;-3276.00;99.90;;;;;;5021895;28;20033;-73
2022/12/09 06:09:34;;;;;;;80.68;20.40;;;-3276.00;99.90;;;;;;5023557;28;20041;-74
2022/12/09 06:11:59;;;;;;;87.25;21.58;;;-3276.00;99.90;;;;;;5015534;28;20041;-73
2022/12/09 06:14:25;;;;;;;67.13;21.38;;;-3276.00;99.90;;;;;;5022932;28;20389;-72
2022/12/09 06:16:50;;;;;;;76.38;22.02;;;-3276.00;99.90;;;;;;5018898;28;20029;-74
2022/12/09 06:19:16;;;;;;;88.68;21.58;;;-3275.90;99.90;;;;;;5024837;28;20033;-74
2022/12/09 06:21:41;;;;;;;92.78;22.42;;;-3275.90;99.90;;;;;;5023476;28;20032;-72
2022/12/09 06:24:07;;;;;;;86.28;23.05;;;-3275.90;99.90;;;;;;5023852;28;20096;-73
2022/12/09 06:26:33;;;;;;;73.13;21.40;;;-3275.90;99.90;;;;;;5024852;28;20034;-72
2022/12/09 06:28:59;;;;;;;81.07;21.60;;;-3275.80;99.90;;;;;;5020539;28;20191;-74
2022/12/09 06:31:26;;;;;;;70.18;20.25;;;-3275.80;99.90;;;;;;5026203;28;20044;-73
2022/12/09 06:33:52;;;;;;;80.25;21.10;;;-3275.80;99.90;;;;;;5020306;28;20038;-74
2022/12/09 06:36:17;;;;;;;77.72;20.90;;;-3275.80;99.90;;;;;;5025754;28;20291;-73
2022/12/09 06:38:43;;;;;;;76.10;21.70;;;-3275.80;99.90;;;;;;5024717;28;20243;-73
2022/12/09 06:41:11;;;;;;;72.53;20.30;;;-3275.80;99.90;;;;;;5025665;28;20175;-74
2022/12/09 06:43:37;;;;;;;78.32;21.30;;;-3275.80;99.90;;;;;;5023182;28;20025;-73
2022/12/09 06:46:14;;;;;;;72.25;19.38;;;-3275.80;99.90;;;;;;5020504;28;20626;-73
2022/12/09 06:48:39;;;;;;;79.32;22.17;;;-3275.80;99.90;;;;;;5024945;28;20029;-73
2022/12/09 06:51:05;;;;;;;80.55;22.00;;;-3275.70;99.90;;;;;;5023442;28;20144;-73
2022/12/09 06:53:31;;;;;;;79.30;20.88;;;-3275.70;99.90;;;;;;5025646;28;20635;-75
2022/12/09 06:56:02;;;;;;;81.93;21.17;;;-3275.70;99.90;;;;;;5026399;28;20029;-74
2022/12/09 06:58:27;;;;;;;76.93;20.30;;;-3275.70;99.90;;;;;;5020917;28;20030;-74
2022/12/09 07:00:53;;;;;;;70.05;21.02;;;-3275.80;99.90;;;;;;5020544;28;20107;-74
2022/12/09 07:03:18;;;;;;;68.60;20.20;;;-3275.70;99.90;;;;;;5025665;28;20026;-74
2022/12/09 07:05:44;;;;;;;75.25;20.08;;;-3275.70;99.90;;;;;;5022495;28;20029;-74
2022/12/09 07:08:09;;;;;;;75.32;20.15;;;-3275.70;99.90;;;;;;5024224;28;20037;-74
2022/12/09 07:10:35;;;;;;;62.92;19.58;;;-3275.70;99.90;;;;;;5023513;28;20056;-75
2022/12/09 07:13:01;;;;;;;64.88;19.05;;;-3275.70;99.90;;;;;;5016562;28;20354;-75
2022/12/09 07:15:26;;;;;;;80.15;20.10;;;-3275.70;99.90;;;;;;5021288;28;20028;-75
2022/12/09 07:17:52;;;;;;;71.25;20.05;;;-3275.70;99.90;;;;;;5029578;28;20110;-74
2022/12/09 07:20:17;;;;;;;69.30;19.95;;;-3275.70;99.90;;;;;;5029415;28;20439;-74
2022/12/09 07:22:43;;;;;;;80.30;19.83;;;-3275.60;99.90;;;;;;5028628;28;20060;-74
2022/12/09 07:25:08;;;;;;;63.47;17.95;;;-3275.50;99.90;;;;;;5021654;28;20113;-74
2022/12/09 07:27:34;;;;;;;71.28;19.40;;;-3275.50;99.90;;;;;;5026884;28;20072;-74
2022/12/09 07:29:59;;;;;;;67.40;18.83;;;-3275.50;99.90;;;;;;5022364;28;20415;-74
2022/12/09 07:32:25;;;;;;;67.97;17.67;;;-3275.40;99.90;;;;;;5026464;28;20034;-74
2022/12/09 07:34:50;;;;;;;63.75;19.00;;;-3275.40;99.90;;;;;;5028243;28;20029;-74
2022/12/09 07:37:16;;;;;;;84.03;19.73;;;-3275.40;99.90;;;;;;5028356;28;20061;-74
2022/12/09 07:39:41;;;;;;;77.72;18.40;;;-3275.50;99.90;;;;;;5018512;28;20032;-73
2022/12/09 07:42:07;;;;;;;73.43;19.85;;;-3275.50;99.90;;;;;;5022815;28;20033;-74
2022/12/09 07:44:32;;;;;;;84.88;20.70;;;-3275.60;99.90;;;;;;5024402;28;20063;-74
2022/12/09 07:46:58;;;;;;;73.22;19.50;;;-3275.60;99.90;;;;;;5026763;28;20022;-74
2022/12/09 07:49:23;;;;;;;83.38;21.15;;;-3275.60;99.90;;;;;;5038123;28;20545;-73
2022/12/09 07:51:49;;;;;;;79.07;20.73;;;-3275.60;99.90;;;;;;5029625;28;20131;-74
2022/12/09 07:54:16;;;;;;;87.25;20.85;;;-3275.70;99.90;;;;;;5029347;28;20524;-74
2022/12/09 07:56:42;;;;;;;77.05;19.85;;;-3275.70;99.90;;;;;;5027800;28;20034;-74
2022/12/09 07:59:09;;;;;;;83.78;20.27;;;-3275.80;99.90;;;;;;5024610;28;20025;-74
2022/12/09 08:01:35;;;;;;;70.00;20.90;;;-3275.80;99.90;;;;;;5027392;28;20072;-74
2022/12/09 08:04:03;;;;;;;77.97;21.52;;;-3275.90;99.90;;;;;;5027312;28;20036;-75
2022/12/09 08:06:30;;;;;;;87.78;22.60;;;-3276.00;99.90;;;;;;5027708;28;20068;-74
2022/12/09 08:09:00;;;;;;;80.82;22.27;;;-3276.00;99.90;;;;;;5028651;28;20158;-74
2022/12/09 08:11:28;;;;;;;73.75;19.65;;;-3276.00;99.90;;;;;;5022577;28;20029;-74
2022/12/09 08:14:02;;;;;;;78.57;20.88;;;-3276.10;99.90;;;;;;5021570;28;20061;-74
2022/12/09 08:16:28;;;;;;;84.80;21.77;;;-3276.10;99.90;;;;;;5020471;28;20057;-74
2022/12/09 08:18:54;;;;;;;86.70;21.40;;;-3276.10;99.90;;;;;;5027706;28;20049;-75
2022/12/09 08:21:28;;;;;;;74.97;20.23;;;-3276.10;99.90;;;;;;5026646;28;20087;-74
2022/12/09 08:23:55;;;;;;;80.75;22.27;;;-3276.20;99.90;;;;;;5023975;28;20211;-75
2022/12/09 08:26:23;;;;;;;83.63;20.88;;;-3276.10;99.90;;;;;;5026061;28;20417;-74
2022/12/09 08:28:49;;;;;;;83.75;21.08;;;-3276.20;99.90;;;;;;5023408;28;20102;-74
2022/12/09 08:31:18;;;;;;;73.03;18.92;;;-3276.20;99.90;;;;;;5017642;28;20021;-75
2022/12/09 08:33:44;;;;;;;76.35;19.30;;;-3276.20;99.90;;;;;;5022911;28;20033;-74
2022/12/09 08:36:12;;;;;;;83.75;20.35;;;-3276.30;99.90;;;;;;5027358;28;20457;-75
2022/12/09 08:38:38;;;;;;;76.57;18.70;;;-3276.30;99.90;;;;;;5025675;28;20334;-75
2022/12/09 08:41:12;;;;;;;72.22;19.60;;;-3276.30;99.90;;;;;;5026370;28;20435;-74
2022/12/09 08:43:38;;;;;;;77.43;19.98;;;-3276.30;99.90;;;;;;5019751;28;20029;-75
2022/12/09 08:46:04;;;;;;;85.85;20.70;;;-3276.30;99.90;;;;;;5034192;28;20075;-75
2022/12/09 08:48:29;;;;;;;84.57;20.60;;;-3276.40;99.90;;;;;;5030111;28;20406;-74
2022/12/09 08:50:55;;;;;;;76.07;21.55;;;-3276.40;99.90;;;;;;5020751;28;20105;-75
2022/12/09 08:53:20;;;;;;;75.18;20.40;;;-3276.40;99.90;;;;;;5025326;28;20123;-75
2022/12/09 08:55:45;;;;;;;77.90;21.23;;;-3276.50;99.90;;;;;;5020461;28;20026;-75
2022/12/09 08:58:11;;;;;;;77.05;21.00;;;-3276.60;99.90;;;;;;5019147;28;20414;-75
2022/12/09 09:00:36;;;;;;;82.15;20.80;;;-3276.70;99.90;;;;;;5020552;28;20030;-74
2022/12/09 09:03:03;;;;;;;66.25;19.27;;;-3276.70;99.90;;;;;;5021434;28;20516;-74
2022/12/09 09:05:28;;;;;;;80.85;20.50;;;0.00;99.90;;;;;;5015614;28;20067;-75
2022/12/09 09:07:54;;;;;;;80.22;20.33;;;0.00;99.90;;;;;;5017626;28;20370;-75
2022/12/09 09:10:19;;;;;;;72.25;20.65;;;0.00;99.90;;;;;;5023853;28;20032;-75
2022/12/09 09:12:45;;;;;;;74.60;22.40;;;0.00;99.90;;;;;;5028291;28;20366;-75
2022/12/09 09:15:11;;;;;;;70.95;21.08;;;0.00;99.90;;;;;;5021319;28;20048;-75
2022/12/09 09:17:36;;;;;;;68.93;20.67;;;0.00;99.90;;;;;;5030207;28;20032;-75
2022/12/09 09:20:02;;;;;;;72.03;20.40;;;0.10;99.90;;;;;;5021999;28;20132;-75
2022/12/09 09:22:28;;;;;;;72.55;20.35;;;0.00;99.80;;;;;;5024761;28;20426;-75
2022/12/09 09:24:54;;;;;;;70.07;19.48;;;0.10;99.90;;;;;;5018674;28;20101;-76
2022/12/09 09:27:19;;;;;;;68.65;19.55;;;0.10;99.70;;;;;;5018578;28;20705;-75
2022/12/09 09:29:45;;;;;;;68.15;18.80;;;0.10;99.70;;;;;;5017933;28;20038;-75
2022/12/09 09:32:11;;;;;;;82.03;19.98;;;0.10;99.70;;;;;;5021375;28;20025;-75
2022/12/09 09:34:36;;;;;;;77.80;20.15;;;0.10;99.60;;;;;;5026429;28;20032;-75
2022/12/09 09:37:02;;;;;;;66.05;19.67;;;0.10;99.50;;;;;;5019576;28;20042;-68
2022/12/09 09:39:27;;;;;;;72.32;19.13;;;0.20;99.50;;;;;;5024930;28;20025;-71
2022/12/09 09:41:55;;;;;;;60.47;19.85;;;0.20;99.60;;;;;;5010831;28;20029;-69
2022/12/09 09:44:23;;;;;;;65.70;18.88;;;0.30;99.50;;;;;;5009824;28;20167;-71
2022/12/09 09:46:49;;;;;;;78.43;18.73;;;0.30;99.40;;;;;;5021582;28;20369;-70
2022/12/09 09:49:23;;;;;;;65.05;19.20;;;0.40;99.40;;;;;;5030705;28;20380;-71
2022/12/09 09:51:49;;;;;;;62.65;19.20;;;0.40;99.30;;;;;;5019655;28;20109;-70
2022/12/09 09:54:15;;;;;;;54.88;17.75;;;0.30;99.20;;;;;;5034702;28;20108;-71
2022/12/09 09:56:54;;;;;;;57.95;19.17;;;0.30;99.30;;;;;;5024043;28;20037;-70
2022/12/09 09:59:30;;;;;;;55.72;19.27;;;0.40;99.30;;;;;;5027611;28;20540;-70
2022/12/09 10:02:10;;;;;;;48.55;17.98;;;0.30;99.10;;;;;;5024593;28;20021;-71
2022/12/09 10:04:52;;;;;;;62.55;18.63;;;0.40;99.20;;;;;;5018644;28;20490;-71
2022/12/09 10:07:29;;;;;;;55.92;19.38;;;0.40;99.20;;;;;;5024280;28;20107;-71
2022/12/09 10:10:06;;;;;;;51.42;18.55;;;0.40;99.10;;;;;;5014700;28;20018;-72
2022/12/09 10:12:46;;;;;;;51.20;18.20;;;0.40;99.00;;;;;;5034367;28;20403;-71
2022/12/09 10:15:17;;;;;;;47.95;17.42;;;0.50;99.20;;;;;;5021458;28;20029;-71
2022/12/09 10:17:52;;;;;;;56.53;18.45;;;0.50;99.20;;;;;;5023818;28;20136;-72
2022/12/09 10:20:25;;;;;;;47.70;18.50;;;0.50;99.00;;;;;;5023885;28;20032;-71
2022/12/09 10:22:58;;;;;;;45.78;17.38;;;0.50;99.10;;;;;;5018963;28;20099;-71
2022/12/09 10:25:29;;;;;;;42.97;17.00;;;0.50;99.00;;;;;;5023744;28;20110;-71
2022/12/09 10:28:21;;;;;;;51.70;18.17;;;0.60;99.20;;;;;;5018236;28;20162;-71
2022/12/09 10:30:48;;;;;;;48.10;17.77;;;0.70;99.10;;;;;;5022617;28;20192;-71
2022/12/09 10:33:17;;;;;;;47.20;17.55;;;0.80;99.10;;;;;;5018958;28;20024;-72
2022/12/09 10:35:43;;;;;;;41.00;17.30;;;0.70;98.80;;;;;;5019125;28;20103;-71
2022/12/09 10:38:14;;;;;;;42.00;17.80;;;0.60;98.90;;;;;;5018004;28;20034;-72
2022/12/09 10:40:49;;;;;;;41.10;17.80;;;0.70;98.80;;;;;;5024364;28;20026;-71
2022/12/09 10:43:34;;;;;;;46.30;17.88;;;0.70;98.80;;;;;;5026847;28;20022;-71
2022/12/09 10:46:11;;;;;;;38.38;17.88;;;0.80;99.00;;;;;;5029448;28;20529;-71
2022/12/09 10:48:46;;;;;;;39.50;17.48;;;1.00;98.90;;;;;;5032263;28;20368;-73
2022/12/09 10:51:18;;;;;;;34.67;16.02;;;1.00;98.80;;;;;;5027420;28;20403;-71
2022/12/09 10:53:48;;;;;;;38.00;16.05;;;1.00;98.80;;;;;;5026705;28;20025;-71
2022/12/09 10:56:21;;;;;;;37.30;16.43;;;1.10;98.80;;;;;;5022561;28;20083;-72
2022/12/09 10:58:46;;;;;;;34.75;16.25;;;1.10;98.60;;;;;;5018558;28;20897;-72
2022/12/09 11:01:14;;;;;;;37.22;16.92;;;1.10;98.60;;;;;;5029181;28;20109;-71
2022/12/09 11:03:50;;;;;;;32.75;15.15;;;1.10;98.70;;;;;;5030980;28;20021;-71
2022/12/09 11:06:29;;;;;;;34.25;16.77;;;1.10;98.50;;;;;;5025337;28;20025;-73
2022/12/09 11:08:57;;;;;;;31.48;15.55;;;1.10;98.40;;;;;;5028206;28;20119;-72
2022/12/09 11:11:40;;;;;;;34.35;15.75;;;1.10;98.30;;;;;;5042730;28;20036;-71
2022/12/09 11:14:33;;;;;;;28.23;14.35;;;1.10;98.20;;;;;;5021505;28;20032;-71
2022/12/09 11:17:19;;;;;;;27.30;14.02;;;1.10;98.30;;;;;;5024516;28;20354;-71
2022/12/09 11:19:49;;;;;;;29.42;14.23;;;1.30;98.50;;;;;;5013726;28;20044;-71
2022/12/09 11:22:39;;;;;;;29.30;14.70;;;1.30;98.10;;;;;;5029008;28;20049;-70
2022/12/09 11:25:17;;;;;;;31.10;15.05;;;1.10;97.80;;;;;;5022277;28;20373;-72
2022/12/09 11:28:01;;;;;;;24.38;12.50;;;1.30;98.10;;;;;;5028048;28;20033;-71
2022/12/09 11:30:48;;;;;;;26.50;13.57;;;1.30;97.70;;;;;;5024565;28;20045;-73
2022/12/09 11:33:13;;;;;;;24.75;13.05;;;1.50;98.00;;;;;;5019204;28;20108;-72
2022/12/09 11:35:42;;;;;;;26.05;13.52;;;1.60;97.70;;;;;;5026486;28;20021;-72
2022/12/09 11:38:22;;;;;;;24.75;13.40;;;1.80;97.70;;;;;;5025176;28;20034;-75
2022/12/09 11:42:12;;;;;;;22.80;12.52;;;1.70;97.10;;;;;;5025251;28;20508;-75
2022/12/09 11:44:12;;;;;;;22.23;12.20;;;1.60;97.30;;;;;;5019189;28;20033;-74
2022/12/09 11:46:38;;;;;;;24.35;12.77;;;1.80;97.40;;;;;;5023426;28;20030;-75
2022/12/09 11:49:15;;;;;;;23.40;12.02;;;1.90;97.10;;;;;;5031800;28;20083;-75
2022/12/09 11:51:57;;;;;;;24.25;12.60;;;2.00;97.10;;;;;;5023937;28;20079;-75
2022/12/09 11:55:00;;;;;;;;;;;2.10;96.90;;;;;;5030157;28;20107;-76
2022/12/09 11:57:28;;;;;;;19.05;10.80;;;2.30;96.60;;;;;;5025335;28;19905;-75
2022/12/09 11:59:58;;;;;;;19.70;11.98;;;2.40;96.30;;;;;;5024405;28;20190;-75
2022/12/09 12:02:37;;;;;;;19.25;11.10;;;2.40;95.80;;;;;;5025273;28;20181;-75
2022/12/09 12:05:20;;;;;;;17.40;11.10;;;2.40;95.10;;;;;;5035813;28;20038;-75
2022/12/09 12:08:03;;;;;;;19.52;11.10;;;2.60;95.80;;;;;;5027218;28;20049;-75
2022/12/09 12:10:39;;;;;;;19.88;11.63;;;2.60;95.60;;;;;;5017539;28;20056;-75
2022/12/09 12:13:25;;;;;;;17.90;11.38;;;2.80;95.50;;;;;;5024499;28;21248;-75
2022/12/09 12:16:24;;;;;;;18.35;10.07;;;3.00;95.60;;;;;;5040517;28;20460;-76
2022/12/09 12:18:56;;;;;;;19.40;10.38;;;2.80;94.60;;;;;;5029085;28;20038;-76
2022/12/09 12:21:51;;;;;;;15.40;9.07;;;2.90;94.40;;;;;;5022245;28;20120;-76
2022/12/09 12:24:38;;;;;;;17.13;9.25;;;2.80;94.00;;;;;;5022258;28;20164;-76